Time;durP1;ratioP1;P1;durP2;ratioP2;P2;SDS_P1;SDS_P2;PMS_P1;PMS_P2;Temp;Humidity;BMP_temperature;BMP_pressure;BME280_temperature;BME280_humidity;BME280_pressure;Samples;Min_cycle;Max_cycle;Signal;HPM_P1;HPM_P2
2022/04/19 00:00:07;;;;;;;9.30;4.30;;;;;;;8.83;59.31;101648.31;2087896;28;44944;-65
2022/04/19 00:01:10;;;;;;;12.18;4.63;;;;;;;8.83;59.13;101650.06;2088317;28;20049;-65
2022/04/19 00:02:12;;;;;;;10.05;4.25;;;;;;;8.78;58.77;101647.44;2096016;28;37538;-65
2022/04/19 00:03:15;;;;;;;8.20;4.57;;;;;;;8.76;60.02;101644.78;2095297;28;45591;-64
2022/04/19 00:04:18;;;;;;;8.43;4.65;;;;;;;8.77;59.98;101649.25;2086796;28;45150;-65
2022/04/19 00:05:20;;;;;;;11.73;4.93;;;;;;;8.74;59.41;101648.31;2086687;28;41453;-65
2022/04/19 00:06:22;;;;;;;7.82;4.80;;;;;;;8.73;59.56;101642.09;2087378;28;45436;-65
2022/04/19 00:07:24;;;;;;;9.02;4.93;;;;;;;8.73;60.50;101652.78;2087459;28;45636;-65
2022/04/19 00:08:25;;;;;;;9.82;4.85;;;;;;;8.74;59.74;101637.66;2087634;28;44954;-66
2022/04/19 00:09:27;;;;;;;8.05;4.30;;;;;;;8.69;60.52;101645.69;2087215;28;44796;-65
2022/04/19 00:10:29;;;;;;;7.78;4.07;;;;;;;8.64;60.36;101647.50;2088038;28;42906;-65
2022/04/19 00:11:31;;;;;;;9.25;4.60;;;;;;;8.60;60.26;101645.72;2087982;28;40762;-65
2022/04/19 00:12:32;;;;;;;8.02;4.35;;;;;;;8.56;60.80;101649.28;2095510;28;44277;-65
2022/04/19 00:13:34;;;;;;;8.15;4.85;;;;;;;8.56;60.45;101646.63;2095558;28;44221;-65
2022/04/19 00:14:38;;;;;;;9.13;4.53;;;;;;;8.53;60.77;101650.19;2087780;28;45816;-65
2022/04/19 00:15:44;;;;;;;9.63;5.03;;;;;;;8.51;60.78;101651.97;2094387;28;43487;-65
2022/04/19 00:16:46;;;;;;;8.93;5.15;;;;;;;8.46;60.87;101645.75;2095496;28;20025;-65
2022/04/19 00:17:48;;;;;;;6.75;3.90;;;;;;;8.41;61.29;101640.41;2086696;28;46751;-65
2022/04/19 00:18:50;;;;;;;7.68;4.63;;;;;;;8.38;61.74;101645.75;2087314;28;42992;-65
2022/04/19 00:19:51;;;;;;;9.25;4.43;;;;;;;8.36;61.60;101642.22;2087381;28;44286;-65
2022/04/19 00:20:54;;;;;;;8.57;4.53;;;;;;;8.37;61.70;101643.09;2087921;28;45644;-65
2022/04/19 00:21:58;;;;;;;9.00;4.32;;;;;;;8.34;61.64;101641.31;2088481;28;20038;-65
2022/04/19 00:23:05;;;;;;;7.97;4.88;;;;;;;8.33;61.76;101638.66;2089058;28;20937;-65
2022/04/19 00:24:07;;;;;;;7.53;4.15;;;;;;;8.29;62.04;101632.44;2087093;28;42548;-65
2022/04/19 00:25:09;;;;;;;6.25;4.13;;;;;;;8.27;62.00;101636.88;2088174;28;43813;-66
2022/04/19 00:26:11;;;;;;;10.98;5.20;;;;;;;8.26;62.37;101635.13;2087593;28;43942;-65
2022/04/19 00:27:15;;;;;;;9.40;4.88;;;;;;;8.25;62.48;101640.44;2088404;28;20822;-65
2022/04/19 00:28:16;;;;;;;7.07;4.43;;;;;;;8.23;62.39;101638.66;2086936;28;46251;-65
2022/04/19 00:29:18;;;;;;;8.63;4.60;;;;;;;8.21;62.49;101636.91;2088531;28;44522;-65
2022/04/19 00:30:20;;;;;;;8.25;4.75;;;;;;;8.22;62.81;101638.69;2086834;28;44602;-65
2022/04/19 00:31:22;;;;;;;11.45;4.97;;;;;;;8.15;63.05;101637.81;2086897;28;44668;-65
2022/04/19 00:32:24;;;;;;;9.75;5.13;;;;;;;8.16;62.94;101638.69;2087362;28;43931;-65
2022/04/19 00:33:27;;;;;;;11.35;4.72;;;;;;;8.15;63.30;101639.59;2086730;28;45536;-65
2022/04/19 00:34:30;;;;;;;8.65;5.30;;;;;;;8.08;62.73;101636.03;2086703;28;43119;-65
2022/04/19 00:35:36;;;;;;;8.90;4.75;;;;;;;8.04;63.53;101642.28;2087465;28;39746;-64
2022/04/19 00:36:39;;;;;;;8.70;4.88;;;;;;;7.99;63.27;101639.59;2094490;28;45314;-64
2022/04/19 00:37:41;;;;;;;9.05;4.72;;;;;;;7.97;63.58;101641.38;2094579;28;43801;-65
2022/04/19 00:38:43;;;;;;;8.68;4.85;;;;;;;7.94;63.84;101636.03;2087358;28;44127;-65
2022/04/19 00:39:45;;;;;;;9.27;5.40;;;;;;;7.98;63.79;101637.81;2087637;28;44770;-65
2022/04/19 00:40:47;;;;;;;7.53;4.78;;;;;;;7.95;63.89;101635.16;2087241;28;43964;-65
2022/04/19 00:41:49;;;;;;;9.27;5.47;;;;;;;7.95;64.06;101643.16;2087523;28;46690;-65
2022/04/19 00:42:51;;;;;;;8.98;4.95;;;;;;;7.90;64.13;101638.72;2088240;28;20030;-65
2022/04/19 00:43:53;;;;;;;9.70;4.70;;;;;;;7.90;64.08;101636.94;2087975;28;45776;-65
2022/04/19 00:44:56;;;;;;;10.23;5.50;;;;;;;7.92;64.41;101634.28;2088702;28;20167;-65
2022/04/19 00:45:58;;;;;;;8.63;5.18;;;;;;;7.93;64.08;101646.69;2087922;28;20057;-65
2022/04/19 00:46:59;;;;;;;9.05;4.93;;;;;;;7.88;64.33;101640.47;2087567;28;24631;-65
2022/04/19 00:48:02;;;;;;;7.95;5.22;;;;;;;7.82;64.22;101642.28;2087826;28;20042;-64
2022/04/19 00:49:07;;;;;;;9.25;5.18;;;;;;;7.86;64.52;101644.94;2080067;28;20046;-65
2022/04/19 00:50:10;;;;;;;9.55;4.82;;;;;;;7.82;64.53;101644.97;2087693;28;21099;-65
2022/04/19 00:51:13;;;;;;;10.85;5.72;;;;;;;7.80;64.27;101640.50;2087499;28;20042;-64
2022/04/19 00:52:17;;;;;;;11.90;5.50;;;;;;;7.86;64.71;101643.19;2071258;28;21030;-65
2022/04/19 00:53:22;;;;;;;7.88;5.10;;;;;;;7.85;64.79;101638.72;2079316;28;42277;-65
2022/04/19 00:54:24;;;;;;;8.88;5.35;;;;;;;7.81;64.70;101650.28;2088120;28;20053;-65
2022/04/19 00:55:26;;;;;;;9.55;5.13;;;;;;;7.80;64.86;101640.50;2086624;28;45633;-65
2022/04/19 00:56:29;;;;;;;8.75;5.25;;;;;;;7.81;64.33;101639.63;2096242;28;20076;-65
2022/04/19 00:57:34;;;;;;;9.38;5.50;;;;;;;7.77;64.33;101646.72;2087192;28;20185;-65
2022/04/19 00:58:36;;;;;;;14.00;5.43;;;;;;;7.76;64.62;101644.06;2079211;28;46730;-65
2022/04/19 00:59:38;;;;;;;9.50;5.53;;;;;;;7.77;65.05;101645.81;2071286;28;20042;-65
2022/04/19 01:00:43;;;;;;;8.73;5.25;;;;;;;7.77;65.32;101636.06;2087895;28;20042;-65
2022/04/19 01:01:50;;;;;;;8.88;5.00;;;;;;;7.76;65.01;101641.41;2087230;28;20148;-65
2022/04/19 01:02:55;;;;;;;9.10;5.53;;;;;;;7.76;65.00;101642.28;2079901;28;20050;-65
2022/04/19 01:03:58;;;;;;;10.50;5.40;;;;;;;7.70;64.95;101641.38;2086920;28;44670;-65
2022/04/19 01:05:00;;;;;;;10.85;5.82;;;;;;;7.68;65.21;101641.41;2096064;28;20025;-65
2022/04/19 01:06:04;;;;;;;9.05;4.90;;;;;;;7.65;65.24;101642.28;2087715;28;20041;-64
2022/04/19 01:07:08;;;;;;;11.15;5.82;;;;;;;7.72;65.34;101642.28;2087858;28;20870;-65
2022/04/19 01:08:11;;;;;;;9.93;5.68;;;;;;;7.72;65.26;101642.28;2087559;28;20168;-65
2022/04/19 01:09:13;;;;;;;9.32;5.13;;;;;;;7.66;65.15;101640.47;2088255;28;20128;-65
2022/04/19 01:10:15;;;;;;;8.85;5.53;;;;;;;7.67;65.45;101644.06;2087107;28;20807;-65
2022/04/19 01:14:07;;;;;;;10.73;5.75;;;;;;;7.57;65.56;101630.75;2081696;28;20102;-64
2022/04/19 01:15:12;;;;;;;10.25;5.22;;;;;;;7.59;65.61;101631.63;2087664;28;20790;-64
2022/04/19 01:16:35;;;;;;;9.38;5.28;;;;;;;7.55;65.47;101636.94;2082124;28;20049;-65
2022/04/19 01:17:39;;;;;;;9.30;5.45;;;;;;;7.53;65.93;101626.28;2087365;28;20796;-65
2022/04/19 01:18:42;;;;;;;10.68;6.03;;;;;;;7.47;65.73;101631.59;2079511;28;20069;-64
2022/04/19 01:19:45;;;;;;;10.02;5.15;;;;;;;7.43;65.87;101635.16;2086497;28;45264;-64
2022/04/19 01:20:52;;;;;;;9.77;5.40;;;;;;;7.43;66.03;101636.03;2095622;28;20041;-64
2022/04/19 01:21:55;;;;;;;10.48;6.00;;;;;;;7.41;66.00;101634.25;2086840;28;20045;-64
2022/04/19 01:23:07;;;;;;;9.77;5.68;;;;;;;7.38;66.04;101639.59;2080564;28;21056;-65
2022/04/19 01:24:19;;;;;;;10.98;5.15;;;;;;;7.38;66.64;101631.59;2087482;28;20076;-64
2022/04/19 01:25:22;;;;;;;10.65;5.50;;;;;;;7.35;66.58;101631.59;2086169;28;20927;-64
2022/04/19 01:26:25;;;;;;;10.82;5.82;;;;;;;7.33;65.67;101636.03;2080343;28;20041;-64
2022/04/19 01:27:27;;;;;;;9.93;5.80;;;;;;;7.35;66.59;101631.59;2079286;28;20954;-64
2022/04/19 01:28:29;;;;;;;11.07;5.78;;;;;;;7.29;66.23;101640.47;2079257;28;20152;-65
2022/04/19 01:29:33;;;;;;;11.55;5.30;;;;;;;7.32;66.66;101632.50;2087014;28;20053;-64
2022/04/19 01:30:38;;;;;;;8.85;5.28;;;;;;;7.30;66.43;101636.91;2079445;28;20046;-64
2022/04/19 01:31:42;;;;;;;9.90;5.38;;;;;;;7.28;66.60;101635.13;2078153;28;42494;-64
2022/04/19 01:32:43;;;;;;;9.40;5.80;;;;;;;7.30;66.44;101638.69;2087688;28;20176;-65
2022/04/19 01:33:45;;;;;;;9.38;5.75;;;;;;;7.29;66.91;101627.16;2078981;28;20046;-64
2022/04/19 01:34:47;;;;;;;9.68;5.80;;;;;;;7.32;66.64;101634.25;2079509;28;20045;-65
2022/04/19 01:35:54;;;;;;;9.52;5.03;;;;;;;7.29;66.86;101627.16;2088425;28;20169;-65
2022/04/19 01:36:57;;;;;;;10.68;5.28;;;;;;;7.28;66.62;101633.34;2086200;28;20046;-64
2022/04/19 01:37:59;;;;;;;11.55;6.38;;;;;;;7.30;66.49;101630.69;2071290;28;20789;-64
2022/04/19 01:39:10;;;;;;;9.57;5.03;;;;;;;7.25;66.57;101626.25;2081698;28;20111;-65
2022/04/19 01:40:17;;;;;;;9.82;5.47;;;;;;;7.24;66.94;101627.13;2079441;28;20042;-65
2022/04/19 01:41:20;;;;;;;12.05;6.03;;;;;;;7.25;66.81;101630.69;2072525;28;20877;-65
2022/04/19 01:42:25;;;;;;;10.38;5.55;;;;;;;7.21;66.48;101632.47;2087898;28;20874;-65
2022/04/19 01:43:29;;;;;;;9.30;5.55;;;;;;;7.18;66.98;101635.13;2087552;28;20042;-64
2022/04/19 01:44:34;;;;;;;11.43;5.55;;;;;;;7.21;66.82;101629.81;2088192;28;20140;-64
2022/04/19 01:45:37;;;;;;;11.00;5.38;;;;;;;7.21;66.62;101639.53;2088058;28;20771;-64
2022/04/19 01:46:43;;;;;;;13.07;6.30;;;;;;;7.20;66.96;101633.34;2087654;28;20037;-64
2022/04/19 01:47:47;;;;;;;11.00;5.57;;;;;;;7.19;66.42;101631.53;2078967;28;20129;-65
2022/04/19 01:48:53;;;;;;;10.57;5.45;;;;;;;7.23;66.75;101633.34;2088138;28;20042;-64
2022/04/19 01:49:54;;;;;;;10.73;5.50;;;;;;;7.18;66.73;101629.78;2087011;28;20074;-64
2022/04/19 01:50:58;;;;;;;10.35;5.82;;;;;;;7.20;67.10;101633.34;2078913;28;46324;-64
2022/04/19 01:52:02;;;;;;;8.95;5.38;;;;;;;7.21;67.04;101629.81;2094305;28;42411;-65
2022/04/19 01:53:05;;;;;;;10.75;6.05;;;;;;;7.15;67.07;101632.44;2087426;28;20216;-65
2022/04/19 01:54:07;;;;;;;10.02;5.70;;;;;;;7.17;66.87;101627.13;2087526;28;20049;-64
2022/04/19 01:55:15;;;;;;;7.55;5.10;;;;;;;7.09;66.82;101632.44;2086408;28;44128;-65
2022/04/19 01:56:17;;;;;;;10.38;5.75;;;;;;;7.10;67.41;101625.31;2087750;28;27217;-65
2022/04/19 01:57:28;;;;;;;9.60;5.70;;;;;;;7.06;66.88;101630.63;2093705;28;20049;-65
2022/04/19 01:58:34;;;;;;;11.45;6.28;;;;;;;7.04;67.21;101628.88;2087549;28;20041;-65
2022/04/19 01:59:39;;;;;;;11.85;5.72;;;;;;;7.08;67.24;101627.97;2087230;28;21029;-64
2022/04/19 02:00:48;;;;;;;10.32;5.57;;;;;;;7.12;67.33;101621.75;2088388;28;20037;-64
2022/04/19 02:01:57;;;;;;;9.35;5.82;;;;;;;7.11;67.68;101622.66;2087079;28;20182;-65
2022/04/19 02:02:59;;;;;;;11.27;6.13;;;;;;;7.15;67.41;101627.09;2087760;28;23880;-65
2022/04/19 02:04:01;;;;;;;11.32;6.15;;;;;;;7.17;67.08;101622.66;2087136;28;20168;-64
2022/04/19 02:05:06;;;;;;;10.50;6.03;;;;;;;7.19;66.72;101630.66;2079466;28;20129;-64
2022/04/19 02:06:10;;;;;;;9.02;5.72;;;;;;;7.13;66.61;101626.22;2070743;28;20030;-65
2022/04/19 02:07:14;;;;;;;9.15;5.03;;;;;;;7.10;67.46;101625.31;2079265;28;20053;-65
2022/04/19 02:08:19;;;;;;;9.82;5.47;;;;;;;7.13;66.94;101636.00;2080614;28;20038;-64
2022/04/19 02:09:21;;;;;;;10.20;5.65;;;;;;;7.06;67.19;101629.75;2070953;28;20114;-65
2022/04/19 02:10:23;;;;;;;10.48;5.63;;;;;;;7.08;67.44;101630.66;2079364;28;20183;-64
2022/04/19 02:11:27;;;;;;;10.85;5.85;;;;;;;7.09;67.33;101624.44;2079797;28;20088;-65
2022/04/19 02:12:44;;;;;;;11.40;5.75;;;;;;;7.08;66.91;101626.19;2075377;28;20054;-64
2022/04/19 02:14:09;;;;;;;10.65;5.70;;;;;;;7.08;67.31;101628.84;2084159;28;20046;-65
2022/04/19 02:15:17;;;;;;;10.65;5.55;;;;;;;7.05;67.53;101630.63;2091321;28;20049;-64
2022/04/19 02:16:25;;;;;;;9.98;6.30;;;;;;;7.03;67.45;101628.00;2086939;28;20169;-64
2022/04/19 02:17:31;;;;;;;10.00;5.57;;;;;;;7.00;67.82;101625.31;2071156;28;20050;-64
2022/04/19 02:18:33;;;;;;;9.90;5.90;;;;;;;6.96;67.94;101634.16;2071002;28;20038;-64
2022/04/19 02:19:36;;;;;;;11.27;5.68;;;;;;;6.94;67.33;101625.28;2078887;28;45655;-65
2022/04/19 02:20:38;;;;;;;10.45;5.88;;;;;;;6.95;67.89;101631.50;2087123;28;44260;-65
2022/04/19 02:21:40;;;;;;;11.38;6.05;;;;;;;6.95;67.48;101635.06;2086581;28;20278;-64
2022/04/19 02:22:43;;;;;;;10.15;5.63;;;;;;;6.95;67.87;101627.06;2086743;28;21000;-65
2022/04/19 02:23:45;;;;;;;10.98;5.78;;;;;;;6.95;67.69;101628.84;2070894;28;20641;-65
2022/04/19 02:24:47;;;;;;;8.85;5.57;;;;;;;6.93;67.39;101627.91;2079569;28;20037;-63
2022/04/19 02:25:51;;;;;;;10.55;5.07;;;;;;;6.94;67.80;101630.59;2095427;28;20029;-64
2022/04/19 02:26:53;;;;;;;11.68;5.93;;;;;;;6.91;68.37;101624.38;2094788;28;26963;-64
2022/04/19 02:27:56;;;;;;;9.55;5.75;;;;;;;6.87;68.06;101628.78;2087596;28;20045;-65
2022/04/19 02:29:03;;;;;;;12.00;5.80;;;;;;;6.86;68.12;101627.91;2079505;28;20124;-64
2022/04/19 02:30:15;;;;;;;10.00;5.65;;;;;;;6.86;67.90;101632.34;2071378;28;20082;-64
2022/04/19 02:31:20;;;;;;;9.27;5.30;;;;;;;6.88;68.62;101635.91;2080750;28;20180;-65
2022/04/19 02:32:29;;;;;;;8.88;5.30;;;;;;;6.86;68.04;101635.03;2086581;28;20038;-64
2022/04/19 02:33:31;;;;;;;10.60;5.57;;;;;;;6.81;67.80;101635.00;2079220;28;20100;-65
2022/04/19 02:34:35;;;;;;;9.73;5.35;;;;;;;6.79;68.21;101630.56;2086890;28;20085;-65
2022/04/19 02:35:39;;;;;;;8.65;5.10;;;;;;;6.79;69.10;101634.09;2087134;28;20045;-64
2022/04/19 02:36:44;;;;;;;12.25;5.65;;;;;;;6.76;68.17;101635.84;2095355;28;20080;-64
2022/04/19 02:37:52;;;;;;;8.77;4.90;;;;;;;6.74;68.30;101632.31;2086917;28;20046;-65
2022/04/19 02:38:59;;;;;;;9.80;5.47;;;;;;;6.73;68.58;101628.78;2088792;28;20084;-65
2022/04/19 02:40:04;;;;;;;9.07;5.13;;;;;;;6.68;67.92;101635.84;2087042;28;20108;-65
2022/04/19 02:41:07;;;;;;;9.50;5.43;;;;;;;6.69;69.09;101629.63;2078953;28;33044;-64
2022/04/19 02:42:10;;;;;;;10.82;5.85;;;;;;;6.69;68.65;101637.59;2080803;28;20038;-65
2022/04/19 02:43:13;;;;;;;11.77;5.47;;;;;;;6.68;68.44;101636.72;2079737;28;20119;-64
2022/04/19 02:44:17;;;;;;;10.30;5.43;;;;;;;6.67;69.20;101634.03;2080370;28;20038;-64
2022/04/19 02:45:32;;;;;;;10.57;5.30;;;;;;;6.68;68.98;101625.19;2081849;28;20046;-66
2022/04/19 02:46:35;;;;;;;11.02;5.88;;;;;;;6.66;69.29;101626.97;2080074;28;20037;-65
2022/04/19 02:47:41;;;;;;;10.13;5.22;;;;;;;6.69;68.60;101634.94;2088972;28;20042;-65
2022/04/19 02:48:43;;;;;;;8.88;4.72;;;;;;;6.69;68.59;101629.63;2088108;28;20049;-65
2022/04/19 02:49:49;;;;;;;8.70;4.70;;;;;;;6.65;68.49;101634.03;2088562;28;20071;-65
2022/04/19 02:50:52;;;;;;;9.38;5.43;;;;;;;6.61;68.25;101632.25;2088339;28;20038;-65
2022/04/19 02:51:55;;;;;;;8.43;5.38;;;;;;;6.70;69.25;101631.41;2088069;28;20160;-65
2022/04/19 02:52:56;;;;;;;8.43;4.95;;;;;;;6.74;68.63;101627.88;2080587;28;20214;-64
2022/04/19 02:53:58;;;;;;;8.68;4.72;;;;;;;6.76;68.26;101625.22;2088088;28;34387;-64
2022/04/19 02:55:00;;;;;;;8.30;4.80;;;;;;;6.74;68.26;101621.66;2088517;28;20054;-64
2022/04/19 02:56:03;;;;;;;10.23;5.15;;;;;;;6.73;67.86;101626.09;2087427;28;39747;-64
2022/04/19 02:57:06;;;;;;;9.45;5.13;;;;;;;6.70;67.86;101620.75;2080479;28;20042;-65
2022/04/19 02:58:08;;;;;;;10.00;4.65;;;;;;;6.70;68.00;101620.75;2079739;28;20057;-65
2022/04/19 02:59:14;;;;;;;9.93;5.10;;;;;;;6.69;67.81;101624.28;2080639;28;20026;-64
2022/04/19 03:00:16;;;;;;;10.82;5.50;;;;;;;6.71;68.85;101626.97;2088246;28;20089;-65
2022/04/19 03:01:18;;;;;;;9.23;5.13;;;;;;;6.72;67.93;101619.00;2088390;28;24189;-65
2022/04/19 03:02:21;;;;;;;9.57;5.68;;;;;;;6.72;68.32;101621.66;2096374;28;20138;-65
2022/04/19 03:03:23;;;;;;;8.65;5.13;;;;;;;6.70;68.27;101620.75;2088797;28;20889;-65
2022/04/19 03:04:27;;;;;;;8.93;5.00;;;;;;;6.73;68.19;101620.78;2088760;28;20041;-65
2022/04/19 03:05:29;;;;;;;8.27;5.25;;;;;;;6.73;68.00;101626.09;2096703;28;32777;-64
2022/04/19 03:06:30;;;;;;;9.80;4.80;;;;;;;6.68;67.90;101623.41;2088994;28;23436;-65
2022/04/19 03:07:32;;;;;;;9.15;5.18;;;;;;;6.71;68.62;101614.53;2088106;28;20989;-64
2022/04/19 03:08:35;;;;;;;8.05;4.70;;;;;;;6.70;67.71;101620.75;2088160;28;46150;-65
2022/04/19 03:09:37;;;;;;;8.73;5.20;;;;;;;6.71;68.26;101618.97;2087407;28;45454;-64
2022/04/19 03:10:38;;;;;;;10.10;5.10;;;;;;;6.67;68.26;101618.09;2087740;28;24824;-64
2022/04/19 03:11:40;;;;;;;8.48;5.22;;;;;;;6.67;68.16;101621.63;2095920;28;44348;-64
2022/04/19 03:12:45;;;;;;;7.72;4.95;;;;;;;6.63;68.78;101617.19;2088061;28;20076;-64
2022/04/19 03:13:54;;;;;;;8.50;4.60;;;;;;;6.64;68.05;101624.28;2088320;28;20134;-65
2022/04/19 03:14:56;;;;;;;8.68;5.03;;;;;;;6.64;67.88;101631.34;2087770;28;35534;-65
2022/04/19 03:15:58;;;;;;;8.23;4.90;;;;;;;6.63;68.57;101632.25;2088782;28;20100;-65
2022/04/19 03:17:01;;;;;;;9.55;4.90;;;;;;;6.67;68.58;101620.75;2080464;28;20084;-64
2022/04/19 03:18:04;;;;;;;9.32;4.90;;;;;;;6.72;68.74;101618.13;2080503;28;20042;-64
2022/04/19 03:19:08;;;;;;;8.98;5.20;;;;;;;6.66;67.76;101624.31;2088027;28;20072;-65
2022/04/19 03:20:13;;;;;;;11.07;5.10;;;;;;;6.66;68.53;101621.66;2088636;28;20048;-64
2022/04/19 03:21:17;;;;;;;10.00;4.88;;;;;;;6.64;68.18;101615.41;2096209;28;20898;-65
2022/04/19 03:22:20;;;;;;;10.82;5.72;;;;;;;6.65;68.32;101631.38;2096843;28;20052;-65
2022/04/19 03:27:42;;;;;;;8.98;4.70;;;;;;;6.65;67.98;101614.53;2085452;28;21624;-64
2022/04/19 03:28:50;;;;;;;8.82;5.13;;;;;;;6.61;68.74;101618.06;2078721;28;20167;-65
2022/04/19 03:29:52;;;;;;;8.27;4.65;;;;;;;6.61;68.18;101623.38;2079089;28;38954;-65
2022/04/19 03:30:54;;;;;;;8.88;4.95;;;;;;;6.61;68.20;101615.41;2088336;28;20049;-65
2022/04/19 03:31:56;;;;;;;10.30;4.72;;;;;;;6.62;68.09;101618.09;2087558;28;20922;-65
2022/04/19 03:32:59;;;;;;;9.85;4.85;;;;;;;6.63;68.01;101618.97;2072670;28;21042;-65
2022/04/19 03:34:05;;;;;;;9.07;4.97;;;;;;;6.66;68.32;101624.31;2088013;28;20050;-65
2022/04/19 03:35:10;;;;;;;8.25;5.10;;;;;;;6.64;68.39;101616.31;2088245;28;20114;-64
2022/04/19 03:36:12;;;;;;;8.40;5.13;;;;;;;6.61;68.08;101626.06;2087847;28;20955;-65
2022/04/19 03:37:13;;;;;;;8.73;4.88;;;;;;;6.60;68.13;101616.28;2079756;28;31860;-65
2022/04/19 03:38:16;;;;;;;9.35;4.88;;;;;;;6.60;68.81;101625.13;2079462;28;20049;-65
2022/04/19 03:39:19;;;;;;;11.63;5.53;;;;;;;6.61;68.77;101621.59;2080416;28;20038;-64
2022/04/19 03:40:22;;;;;;;8.18;5.00;;;;;;;6.57;68.66;101624.25;2087696;28;20986;-65
2022/04/19 03:41:24;;;;;;;7.93;4.93;;;;;;;6.55;69.10;101620.69;2086698;28;45555;-65
2022/04/19 03:42:26;;;;;;;8.80;4.63;;;;;;;6.55;69.05;101626.00;2078611;28;45428;-65
2022/04/19 03:43:28;;;;;;;9.07;4.75;;;;;;;6.58;69.40;101629.56;2087788;28;20731;-65
2022/04/19 03:44:31;;;;;;;8.65;5.15;;;;;;;6.56;68.66;101627.78;2087606;28;21724;-64
2022/04/19 03:45:32;;;;;;;8.85;5.10;;;;;;;6.52;68.99;101620.69;2088433;28;20968;-65
2022/04/19 03:47:07;;;;;;;8.02;4.82;;;;;;;6.52;68.84;101628.69;2087788;28;20996;-64
2022/04/19 03:48:00;;;;;;;8.15;4.95;;;;;;;6.47;68.67;101629.53;2074078;28;20101;-65
2022/04/19 03:49:03;;;;;;;7.82;4.43;;;;;;;6.50;69.72;101628.66;2083252;28;20099;-65
2022/04/19 03:50:06;;;;;;;9.82;5.38;;;;;;;6.47;69.19;101628.63;2087713;28;32177;-64
2022/04/19 03:51:08;;;;;;;9.70;4.75;;;;;;;6.43;68.65;101627.72;2080166;28;20104;-65
2022/04/19 03:52:10;;;;;;;8.93;4.85;;;;;;;6.42;69.06;101636.56;2079746;28;20046;-64
2022/04/19 03:53:15;;;;;;;7.82;5.10;;;;;;;6.41;68.99;101631.28;2088376;28;20127;-64
2022/04/19 03:54:16;;;;;;;10.02;5.07;;;;;;;6.39;69.62;101630.34;2087721;28;24099;-64
2022/04/19 03:55:19;;;;;;;10.18;5.40;;;;;;;6.42;69.69;101630.38;2079903;28;20830;-64
2022/04/19 03:56:22;;;;;;;9.25;4.75;;;;;;;6.36;68.92;101627.69;2088199;28;20930;-64
2022/04/19 03:57:25;;;;;;;8.60;4.97;;;;;;;6.35;69.11;101633.88;2087569;28;20038;-64
2022/04/19 03:58:28;;;;;;;9.55;5.25;;;;;;;6.30;69.97;101624.13;2071633;28;20042;-64
2022/04/19 03:59:31;;;;;;;8.45;5.22;;;;;;;6.27;69.05;101636.50;2079951;28;20132;-64
2022/04/19 04:00:33;;;;;;;10.25;5.07;;;;;;;6.23;70.37;101626.75;2087655;28;20084;-64
2022/04/19 04:01:37;;;;;;;8.52;5.18;;;;;;;6.19;69.98;101628.50;2087763;28;20045;-64
2022/04/19 04:02:39;;;;;;;8.32;4.95;;;;;;;6.21;70.15;101637.38;2080261;28;20037;-64
2022/04/19 04:03:41;;;;;;;9.15;5.13;;;;;;;6.20;69.66;101629.38;2087780;28;20814;-64
2022/04/19 04:04:43;;;;;;;10.25;4.80;;;;;;;6.15;69.93;101625.78;2087772;28;20048;-64
2022/04/19 04:05:45;;;;;;;7.22;4.50;;;;;;;6.14;69.70;101631.97;2079976;28;20112;-64
2022/04/19 04:06:48;;;;;;;7.65;4.90;;;;;;;6.09;69.57;101627.53;2079610;28;21346;-64
2022/04/19 04:07:51;;;;;;;8.40;5.05;;;;;;;6.07;71.22;101633.72;2080270;28;20034;-64
2022/04/19 04:08:56;;;;;;;10.43;5.85;;;;;;;6.07;70.33;101636.38;2087370;28;20061;-64
2022/04/19 04:09:58;;;;;;;8.15;5.10;;;;;;;6.00;70.27;101632.78;2088176;28;20038;-65
2022/04/19 04:11:00;;;;;;;7.35;4.68;;;;;;;6.01;70.84;101631.94;2079793;28;20108;-64
2022/04/19 04:12:11;;;;;;;8.85;4.85;;;;;;;6.04;71.16;101639.00;2080312;28;20050;-64
2022/04/19 04:13:14;;;;;;;7.85;4.82;;;;;;;6.00;70.23;101632.78;2088506;28;20045;-64
2022/04/19 04:14:15;;;;;;;8.02;5.25;;;;;;;6.00;71.08;101631.91;2087530;28;20049;-65
2022/04/19 04:15:17;;;;;;;8.13;4.80;;;;;;;5.99;71.31;101631.00;2071060;28;20059;-64
2022/04/19 04:16:19;;;;;;;8.07;4.80;;;;;;;5.98;70.07;101636.31;2079162;28;44923;-64
2022/04/19 04:17:21;;;;;;;8.88;4.57;;;;;;;6.02;71.06;101638.13;2095956;28;20110;-64
2022/04/19 04:18:24;;;;;;;8.60;5.05;;;;;;;5.99;70.50;101627.47;2087818;28;33390;-64
2022/04/19 04:19:26;;;;;;;6.63;4.55;;;;;;;5.94;70.98;101638.03;2087789;28;20088;-65
2022/04/19 04:20:27;;;;;;;8.82;4.75;;;;;;;5.92;71.21;101642.44;2096887;28;20048;-64
2022/04/19 04:21:29;;;;;;;8.07;4.88;;;;;;;5.98;70.64;101631.91;2087659;28;20041;-65
2022/04/19 04:22:31;;;;;;;8.23;4.85;;;;;;;5.99;70.06;101631.00;2088099;28;20795;-64
2022/04/19 04:23:36;;;;;;;9.43;5.10;;;;;;;5.99;70.97;101630.13;2096112;28;21048;-64
2022/04/19 04:24:46;;;;;;;8.07;4.60;;;;;;;5.97;70.54;101631.88;2088058;28;20841;-64
2022/04/19 04:25:47;;;;;;;7.28;4.38;;;;;;;5.98;69.98;101636.31;2087853;28;20715;-64
2022/04/19 04:26:52;;;;;;;8.38;4.97;;;;;;;5.98;71.12;101631.00;2088086;28;20780;-65
2022/04/19 04:27:57;;;;;;;8.63;4.38;;;;;;;6.02;69.73;101636.34;2088062;28;20922;-64
2022/04/19 04:29:06;;;;;;;7.65;4.72;;;;;;;6.04;70.45;101631.91;2088143;28;20172;-64
2022/04/19 04:30:09;;;;;;;7.20;4.38;;;;;;;6.06;69.97;101642.56;2087550;28;20049;-64
2022/04/19 04:31:18;;;;;;;7.43;4.38;;;;;;;6.13;69.67;101646.16;2080601;28;20046;-64
2022/04/19 04:32:20;;;;;;;7.18;4.25;;;;;;;6.14;69.87;101642.63;2087206;28;26217;-64
2022/04/19 04:33:22;;;;;;;8.02;4.53;;;;;;;6.13;69.35;101640.84;2087720;28;20049;-65
2022/04/19 04:34:24;;;;;;;8.70;4.50;;;;;;;6.15;70.32;101634.66;2079732;28;20034;-64
2022/04/19 04:35:26;;;;;;;7.13;4.50;;;;;;;6.14;68.85;101634.63;2087844;28;20075;-64
2022/04/19 04:36:28;;;;;;;8.32;4.28;;;;;;;6.15;69.03;101633.78;2087195;28;20657;-64
2022/04/19 04:37:30;;;;;;;7.68;4.03;;;;;;;6.21;68.96;101641.78;2087660;28;21001;-65
2022/04/19 04:38:35;;;;;;;7.68;4.30;;;;;;;6.23;69.19;101637.38;2087406;28;20037;-64
2022/04/19 04:39:41;;;;;;;7.75;3.85;;;;;;;6.35;69.28;101642.75;2079969;28;20042;-64
2022/04/19 04:41:11;;;;;;;;;;;;;;;6.51;68.50;101643.72;2075294;28;20175;-64
2022/04/19 04:42:13;;;;;;;8.10;4.30;;;;;;;6.59;67.19;101643.78;2087532;28;20022;-64
2022/04/19 04:43:15;;;;;;;5.43;4.00;;;;;;;6.63;67.03;101645.56;2087576;28;29290;-63
2022/04/19 04:44:17;;;;;;;7.03;3.70;;;;;;;6.61;67.04;101647.34;2087222;28;20070;-63
2022/04/19 04:45:18;;;;;;;6.63;4.10;;;;;;;6.67;67.69;101653.56;2079691;28;20042;-63
2022/04/19 04:50:22;;;;;;;6.32;3.45;;;;;;;7.77;63.67;101648.47;2093466;28;20653;-64
2022/04/19 04:51:24;;;;;;;5.70;4.00;;;;;;;8.07;62.12;101649.38;2086334;28;46125;-63
2022/04/19 04:52:28;;;;;;;6.10;3.85;;;;;;;8.52;60.28;101645.72;2079148;28;20123;-63
2022/04/19 04:53:31;;;;;;;6.22;3.60;;;;;;;8.69;59.44;101645.69;2087798;28;20126;-63
2022/04/19 04:54:44;;;;;;;7.18;3.45;;;;;;;9.07;58.10;101647.28;2087575;28;20033;-63
2022/04/19 04:55:52;;;;;;;6.75;3.30;;;;;;;9.28;57.74;101640.94;2080210;28;20100;-63
2022/04/19 04:57:02;;;;;;;4.78;3.35;;;;;;;9.55;56.88;101642.53;2080273;28;20084;-63
2022/04/19 04:58:03;;;;;;;5.85;3.72;;;;;;;9.75;56.20;101645.06;2079625;28;20041;-63
2022/04/19 04:59:07;;;;;;;6.50;3.53;;;;;;;9.84;56.15;101646.78;2079735;28;20053;-63
2022/04/19 05:00:09;;;;;;;6.72;3.55;;;;;;;10.21;54.57;101650.88;2079546;28;20052;-63
2022/04/19 05:01:27;;;;;;;4.30;2.75;;;;;;;10.71;53.46;101652.16;2081095;28;20941;-64
2022/04/19 05:02:29;;;;;;;5.18;3.60;;;;;;;10.82;52.46;101646.66;2071640;28;20102;-63
2022/04/19 05:03:30;;;;;;;5.43;3.10;;;;;;;10.92;51.84;101645.63;2079310;28;27083;-64
2022/04/19 05:04:33;;;;;;;6.70;3.28;;;;;;;10.97;51.72;101643.78;2086779;28;20042;-63
2022/04/19 05:05:34;;;;;;;6.32;3.10;;;;;;;11.12;51.18;101642.69;2079570;28;20037;-63
2022/04/19 05:06:37;;;;;;;4.40;2.97;;;;;;;11.64;51.76;101643.72;2078894;28;20153;-63
2022/04/19 05:07:39;;;;;;;6.35;3.20;;;;;;;11.22;51.64;101647.03;2079086;28;20045;-64
2022/04/19 05:08:42;;;;;;;7.63;3.53;;;;;;;11.31;51.46;101642.44;2087327;28;20068;-64
2022/04/19 05:09:43;;;;;;;6.25;3.40;;;;;;;11.92;49.85;101645.97;2078754;28;20042;-64
2022/04/19 05:10:45;;;;;;;6.22;3.30;;;;;;;12.05;48.71;101639.47;2071611;28;20045;-64